createdAt,value
2018-10-01T00:01:00.938Z,14.90
2018-10-01T00:03:31.233Z,15.43
2018-10-01T00:06:00.933Z,14.40
2018-10-01T00:08:30.695Z,21.07
2018-10-01T00:11:00.487Z,18.03
2018-10-01T00:13:30.172Z,18.87
2018-10-01T00:15:59.644Z,14.53
2018-10-01T00:18:29.362Z,16.07
2018-10-01T00:21:03.796Z,16.83
2018-10-01T00:23:33.594Z,18.97
2018-10-01T00:26:03.271Z,18.50
2018-10-01T00:28:32.895Z,17.67
2018-10-01T00:31:02.830Z,16.83
2018-10-01T00:33:32.598Z,16.87
2018-10-01T00:36:02.374Z,17.20
2018-10-01T00:38:32.088Z,20.20
2018-10-01T00:41:01.921Z,15.67
2018-10-01T00:43:32.225Z,18.70
2018-10-01T00:46:02.105Z,16.40
2018-10-01T00:48:32.353Z,16.73
2018-10-01T00:51:02.026Z,18.93
2018-10-01T00:53:31.659Z,17.43
2018-10-01T00:56:02.350Z,19.17
2018-10-01T00:58:32.011Z,19.37
2018-10-01T01:01:01.809Z,18.43
2018-10-01T01:03:31.480Z,16.87
2018-10-01T01:06:01.456Z,14.00
2018-10-01T01:08:31.207Z,17.43
2018-10-01T01:11:00.966Z,18.10
2018-10-01T01:13:31.531Z,14.87
2018-10-01T01:16:01.296Z,16.00
2018-10-01T01:18:31.229Z,17.53
2018-10-01T01:21:00.990Z,18.73
2018-10-01T01:23:30.804Z,20.67
2018-10-01T01:26:00.421Z,16.63
2018-10-01T01:28:30.126Z,16.50
2018-10-01T01:30:59.668Z,14.70
2018-10-01T01:33:29.357Z,17.20
2018-10-01T01:35:59.115Z,18.23
2018-10-01T01:38:28.855Z,18.83
2018-10-01T01:40:58.452Z,17.10
2018-10-01T01:43:28.301Z,20.30
2018-10-01T01:45:58.085Z,25.03
2018-10-01T01:48:27.732Z,31.40
2018-10-01T01:50:57.512Z,25.60
2018-10-01T01:53:27.336Z,23.03
2018-10-01T01:55:56.796Z,20.63
2018-10-01T01:58:26.351Z,29.60
2018-10-01T02:00:56.008Z,21.93
2018-10-01T02:03:25.867Z,25.57
2018-10-01T02:05:55.585Z,23.17
2018-10-01T02:08:25.356Z,23.93
2018-10-01T02:10:55.080Z,20.70
2018-10-01T02:13:24.702Z,24.83
2018-10-01T02:15:54.385Z,22.83
2018-10-01T02:18:24.555Z,21.83
2018-10-01T02:20:54.148Z,27.57
2018-10-01T02:23:23.941Z,24.53
2018-10-01T02:25:53.664Z,22.90
2018-10-01T02:28:23.778Z,23.73
2018-10-01T02:30:53.487Z,25.27
2018-10-01T02:33:23.272Z,30.37
2018-10-01T02:35:52.891Z,20.63
2018-10-01T02:38:22.625Z,22.27
2018-10-01T02:40:52.532Z,18.87
2018-10-01T02:43:22.453Z,27.23
2018-10-01T02:45:52.223Z,23.87
2018-10-01T02:48:21.975Z,24.40
2018-10-01T02:50:51.608Z,20.47
2018-10-01T02:53:26.306Z,26.80
2018-10-01T02:55:55.851Z,26.00
2018-10-01T02:58:25.607Z,24.37
2018-10-01T03:00:55.087Z,27.63
2018-10-01T03:03:24.695Z,23.43
2018-10-01T03:05:55.109Z,22.93
2018-10-01T03:08:24.741Z,25.40
2018-10-01T03:10:54.622Z,25.70
2018-10-01T03:13:25.184Z,25.30
2018-10-01T03:15:55.748Z,26.10
2018-10-01T03:18:25.633Z,21.90
2018-10-01T03:20:55.302Z,24.80
2018-10-01T03:23:24.941Z,28.80
2018-10-01T03:25:54.600Z,23.40
2018-10-01T03:28:24.259Z,25.03
2018-10-01T03:30:53.864Z,26.83
2018-10-01T03:33:23.523Z,25.80
2018-10-01T03:35:53.234Z,23.77
2018-10-01T03:38:23.008Z,25.37
2018-10-01T03:40:52.475Z,23.13
2018-10-01T03:43:22.652Z,24.83
2018-10-01T03:45:53.496Z,24.37
2018-10-01T03:48:23.376Z,23.13
2018-10-01T03:50:53.100Z,25.87
2018-10-01T03:53:23.395Z,29.90
2018-10-01T03:55:52.926Z,27.03
2018-10-01T03:58:22.738Z,30.93
2018-10-01T04:00:52.386Z,27.73
2018-10-01T04:03:22.154Z,29.60
2018-10-01T04:05:51.888Z,25.57
2018-10-01T04:08:21.546Z,26.80
2018-10-01T04:10:52.279Z,30.40
2018-10-01T04:13:22.061Z,27.73
2018-10-01T04:15:51.799Z,26.57
2018-10-01T04:18:21.502Z,30.03
2018-10-01T04:20:51.228Z,29.93
2018-10-01T04:23:20.927Z,27.73
2018-10-01T04:25:50.535Z,25.50
2018-10-01T04:28:20.132Z,25.23
2018-10-01T04:30:50.017Z,29.30
2018-10-01T04:33:19.748Z,32.83
2018-10-01T04:35:49.329Z,36.33
2018-10-01T04:38:18.951Z,26.00
2018-10-01T04:40:48.779Z,24.30
2018-10-01T04:43:18.505Z,26.73
2018-10-01T04:45:48.189Z,31.67
2018-10-01T04:48:17.840Z,25.80
2018-10-01T04:50:47.601Z,26.27
2018-10-01T04:53:17.207Z,28.23
2018-10-01T04:55:46.811Z,31.60
2018-10-01T04:58:16.724Z,29.67
2018-10-01T05:00:46.477Z,28.07
2018-10-01T05:03:16.399Z,29.43
2018-10-01T05:05:45.946Z,34.40
2018-10-01T05:08:15.896Z,30.00
2018-10-01T05:10:45.906Z,33.67
2018-10-01T05:13:15.580Z,30.17
2018-10-01T05:15:45.285Z,32.27
2018-10-01T05:18:15.035Z,29.33
2018-10-01T05:20:44.607Z,29.60
2018-10-01T05:23:14.425Z,29.63
2018-10-01T05:25:44.162Z,34.30
2018-10-01T05:28:13.890Z,66.37
2018-10-01T05:30:43.484Z,33.80
2018-10-01T05:33:13.294Z,25.97
2018-10-01T05:35:43.159Z,30.90
2018-10-01T05:38:12.912Z,27.47
2018-10-01T05:40:42.859Z,42.07
2018-10-01T05:43:12.948Z,49.93
2018-10-01T05:45:42.620Z,29.90
2018-10-01T05:48:12.427Z,30.80
2018-10-01T05:50:42.185Z,47.40
2018-10-01T05:53:12.223Z,35.90
2018-10-01T05:55:41.923Z,32.17
2018-10-01T05:58:11.475Z,31.50
2018-10-01T06:00:41.245Z,27.50
2018-10-01T06:03:10.998Z,34.33
2018-10-01T06:05:40.864Z,34.63
2018-10-01T06:08:10.688Z,29.90
2018-10-01T06:10:40.956Z,31.13
2018-10-01T06:13:10.608Z,29.33
2018-10-01T06:15:41.250Z,33.43
2018-10-01T06:18:11.034Z,45.70
2018-10-01T06:20:40.996Z,33.93
2018-10-01T06:23:10.791Z,32.83
2018-10-01T06:25:40.735Z,37.97
2018-10-01T06:28:10.662Z,42.97
2018-10-01T06:30:40.521Z,38.80
2018-10-01T06:33:11.215Z,35.27
2018-10-01T06:35:40.933Z,38.80
2018-10-01T06:38:10.835Z,49.83
2018-10-01T06:40:40.555Z,37.67
2018-10-01T06:43:10.218Z,34.60
2018-10-01T06:45:40.084Z,34.10
2018-10-01T06:48:09.895Z,29.97
2018-10-01T06:50:39.471Z,27.10
2018-10-01T06:53:09.696Z,27.90
2018-10-01T06:55:39.195Z,27.13
2018-10-01T06:58:09.006Z,32.93
2018-10-01T07:00:40.704Z,25.57
2018-10-01T07:03:13.076Z,24.63
2018-10-01T07:05:43.229Z,22.50
2018-10-01T07:08:12.998Z,32.80
2018-10-01T07:10:42.612Z,29.53
2018-10-01T07:13:12.995Z,28.30
2018-10-01T07:15:42.908Z,23.10
2018-10-01T07:18:13.008Z,28.67
2018-10-01T07:20:42.957Z,27.10
2018-10-01T07:23:12.546Z,34.30
2018-10-01T07:25:42.393Z,26.93
2018-10-01T07:28:12.117Z,27.17
2018-10-01T07:30:41.931Z,26.80
2018-10-01T07:33:12.277Z,20.00
2018-10-01T07:35:41.983Z,21.67
2018-10-01T07:38:11.658Z,21.87
2018-10-01T07:40:41.397Z,19.73
2018-10-01T07:43:11.160Z,19.63
2018-10-01T07:45:42.694Z,49.07
2018-10-01T07:48:12.437Z,28.30
2018-10-01T07:50:42.064Z,16.53
2018-10-01T07:53:11.858Z,21.47
2018-10-01T07:55:41.541Z,28.40
2018-10-01T07:58:11.365Z,19.03
2018-10-01T08:00:41.177Z,18.43
2018-10-01T08:03:11.072Z,22.70
2018-10-01T08:05:40.916Z,20.20
2018-10-01T08:08:10.842Z,20.10
2018-10-01T08:10:40.665Z,18.33
2018-10-01T08:13:10.414Z,16.07
2018-10-01T08:15:40.314Z,11.90
2018-10-01T08:18:09.824Z,16.03
2018-10-01T08:20:40.522Z,12.63
2018-10-01T08:23:10.601Z,21.80
2018-10-01T08:25:40.298Z,15.73
2018-10-01T08:28:10.223Z,15.97
2018-10-01T08:30:39.959Z,16.87
2018-10-01T08:33:09.533Z,17.20
2018-10-01T08:35:39.285Z,13.47
2018-10-01T08:38:09.030Z,12.27
2018-10-01T08:40:38.824Z,11.63
2018-10-01T08:43:08.829Z,16.03
2018-10-01T08:45:38.689Z,13.37
2018-10-01T08:48:08.912Z,10.93
2018-10-01T08:50:44.592Z,12.87
2018-10-01T08:53:22.530Z,12.93
2018-10-01T08:55:52.261Z,16.57
2018-10-01T08:58:21.982Z,21.27
2018-10-01T09:00:51.729Z,17.77
2018-10-01T09:03:21.518Z,11.40
2018-10-01T09:05:51.365Z,14.77
2018-10-01T09:08:21.792Z,13.53
2018-10-01T09:10:51.490Z,13.53
2018-10-01T09:13:21.278Z,10.40
2018-10-01T09:15:51.127Z,15.07
2018-10-01T09:18:20.813Z,43.27
2018-10-01T09:20:50.589Z,16.13
2018-10-01T09:23:20.236Z,13.70
2018-10-01T09:25:53.909Z,14.90
2018-10-01T09:28:26.210Z,11.77
2018-10-01T09:30:57.073Z,10.20
2018-10-01T09:33:35.173Z,8.00
2018-10-01T09:36:05.299Z,10.63
2018-10-01T09:38:35.035Z,9.00
2018-10-01T09:41:04.785Z,13.27
2018-10-01T09:43:34.573Z,10.73
2018-10-01T09:46:04.311Z,9.90
2018-10-01T09:48:33.965Z,12.40
2018-10-01T09:51:03.912Z,13.93
2018-10-01T09:53:34.001Z,20.40
2018-10-01T09:56:03.842Z,13.00
2018-10-01T09:58:33.578Z,9.90
2018-10-01T10:01:08.172Z,11.20
2018-10-01T10:03:37.821Z,14.13
2018-10-01T10:06:09.684Z,10.17
2018-10-01T10:08:39.952Z,10.33
2018-10-01T10:11:09.708Z,11.30
2018-10-01T10:13:39.665Z,8.00
2018-10-01T10:16:09.602Z,11.20
2018-10-01T10:18:39.441Z,8.43
2018-10-01T10:21:09.234Z,8.33
2018-10-01T10:23:39.154Z,8.40
2018-10-01T10:26:08.758Z,7.80
2018-10-01T10:28:41.510Z,8.53
2018-10-01T10:31:11.229Z,9.57
2018-10-01T10:33:40.960Z,9.63
2018-10-01T10:36:10.957Z,12.80
2018-10-01T10:38:41.486Z,11.93
2018-10-01T10:41:11.204Z,8.17
2018-10-01T10:43:41.127Z,9.07
2018-10-01T10:46:11.147Z,10.83
2018-10-01T10:48:40.898Z,35.63
2018-10-01T10:51:10.513Z,9.27
2018-10-01T10:53:40.268Z,8.13
2018-10-01T10:56:10.029Z,12.20
2018-10-01T10:58:39.813Z,9.37
2018-10-01T11:01:09.697Z,9.73
2018-10-01T11:03:39.481Z,28.23
2018-10-01T11:06:09.273Z,15.20
2018-10-01T11:08:39.050Z,16.00
2018-10-01T11:11:09.098Z,8.40
2018-10-01T11:13:38.838Z,8.63
2018-10-01T11:16:08.674Z,10.93
2018-10-01T11:18:38.529Z,12.73
2018-10-01T11:21:08.831Z,8.47
2018-10-01T11:23:38.799Z,8.60
2018-10-01T11:26:08.673Z,9.60
2018-10-01T11:28:38.493Z,9.13
2018-10-01T11:31:08.297Z,9.17
2018-10-01T11:33:38.970Z,8.13
2018-10-01T11:36:08.617Z,16.83
2018-10-01T11:38:38.298Z,9.97
2018-10-01T11:41:08.046Z,7.23
2018-10-01T11:43:37.802Z,10.67
2018-10-01T11:46:07.333Z,9.63
2018-10-01T11:48:37.042Z,7.50
2018-10-01T11:51:06.958Z,11.87
2018-10-01T11:53:36.820Z,10.47
2018-10-01T11:56:06.595Z,10.17
2018-10-01T11:58:36.384Z,12.07
2018-10-01T12:01:06.123Z,9.80
2018-10-01T12:03:35.893Z,8.83
2018-10-01T12:06:05.530Z,8.07
2018-10-01T12:08:35.512Z,20.33
2018-10-01T12:11:05.200Z,6.30
2018-10-01T12:13:35.098Z,7.17
2018-10-01T12:16:04.973Z,7.17
2018-10-01T12:18:34.548Z,5.97
2018-10-01T12:21:04.461Z,6.73
2018-10-01T12:23:34.211Z,6.93
2018-10-01T12:26:04.091Z,5.30
2018-10-01T12:28:33.912Z,7.30
2018-10-01T12:31:03.526Z,6.67
2018-10-01T12:33:33.459Z,5.40
2018-10-01T12:36:03.305Z,6.17
2018-10-01T12:38:33.602Z,10.90
2018-10-01T12:41:05.845Z,18.30
2018-10-01T12:43:35.537Z,4.80
2018-10-01T12:46:06.184Z,6.13
2018-10-01T12:48:35.895Z,5.67
2018-10-01T12:51:06.051Z,9.00
2018-10-01T12:53:37.634Z,6.03
2018-10-01T12:56:07.519Z,9.23
2018-10-01T12:58:37.034Z,6.40
2018-10-01T13:01:07.793Z,4.30
2018-10-01T13:03:37.701Z,12.00
2018-10-01T13:06:07.525Z,4.23
2018-10-01T13:08:37.116Z,5.03
2018-10-01T13:11:37.737Z,6.25
2018-10-01T13:14:07.492Z,9.97
2018-10-01T13:16:37.614Z,5.27
2018-10-01T13:19:07.646Z,8.25
2018-10-01T13:21:37.422Z,4.57
2018-10-01T13:24:07.789Z,14.43
2018-10-01T13:26:37.495Z,10.37
2018-10-01T13:29:07.260Z,8.83
2018-10-01T13:31:36.788Z,7.53
2018-10-01T13:34:06.543Z,5.12
2018-10-01T13:36:36.230Z,5.23
2018-10-01T13:39:07.503Z,3.87
2018-10-01T13:41:37.055Z,8.50
2018-10-01T13:44:06.779Z,7.30
2018-10-01T13:46:36.558Z,16.50
2018-10-01T13:49:05.990Z,4.35
2018-10-01T13:51:35.857Z,13.50
2018-10-01T13:54:05.454Z,8.00
2018-10-01T13:56:35.006Z,5.53
2018-10-01T13:59:04.832Z,4.43
2018-10-01T14:01:34.752Z,9.03
2018-10-01T14:04:04.267Z,5.35
2018-10-01T14:06:33.949Z,14.20
2018-10-01T14:09:03.773Z,9.40
2018-10-01T14:11:33.423Z,6.03
2018-10-01T14:14:03.110Z,6.53
2018-10-01T14:16:32.790Z,15.43
2018-10-01T14:19:02.607Z,11.73
2018-10-01T14:21:32.299Z,5.40
2018-10-01T14:24:02.100Z,8.87
2018-10-01T14:26:31.713Z,14.13
2018-10-01T14:29:01.788Z,7.40
2018-10-01T14:31:31.330Z,5.40
2018-10-01T14:34:00.953Z,23.53
2018-10-01T14:36:30.596Z,5.77
2018-10-01T14:39:00.318Z,3.87
2018-10-01T14:41:29.976Z,5.20
2018-10-01T14:44:00.206Z,4.87
2018-10-01T14:46:29.798Z,7.07
2018-10-01T14:48:59.889Z,8.03
2018-10-01T14:51:30.125Z,43.17
2018-10-01T14:53:59.969Z,10.93
2018-10-01T14:56:29.674Z,10.83
2018-10-01T14:58:59.207Z,6.37
2018-10-01T15:01:28.978Z,18.37
2018-10-01T15:03:58.595Z,11.67
2018-10-01T15:06:28.916Z,12.93
2018-10-01T15:08:58.710Z,16.47
2018-10-01T15:11:28.430Z,9.50
2018-10-01T15:13:58.173Z,12.73
2018-10-01T15:16:28.351Z,10.13
2018-10-01T15:18:58.028Z,14.40
2018-10-01T15:21:27.721Z,12.63
2018-10-01T15:23:57.499Z,26.07
2018-10-01T15:26:27.262Z,11.73
2018-10-01T15:28:57.230Z,8.50
2018-10-01T15:31:27.206Z,18.77
2018-10-01T15:33:56.918Z,11.93
2018-10-01T15:36:26.845Z,12.13
2018-10-01T15:38:57.583Z,11.57
2018-10-01T15:41:27.403Z,12.03
2018-10-01T15:43:57.045Z,11.67
2018-10-01T15:46:26.705Z,19.00
2018-10-01T15:48:56.411Z,21.73
2018-10-01T15:51:26.057Z,23.67
2018-10-01T15:53:56.141Z,22.10
2018-10-01T15:56:25.692Z,27.07
2018-10-01T15:58:55.386Z,23.17
2018-10-01T16:01:25.197Z,28.43
2018-10-01T16:03:54.989Z,20.13
2018-10-01T16:06:24.547Z,18.07
2018-10-01T16:08:54.266Z,19.00
2018-10-01T16:11:23.938Z,18.90
2018-10-01T16:13:53.817Z,22.47
2018-10-01T16:16:23.488Z,17.30
2018-10-01T16:18:53.181Z,15.60
2018-10-01T16:21:23.453Z,17.17
2018-10-01T16:23:53.245Z,21.20
2018-10-01T16:26:23.346Z,17.17
2018-10-01T16:28:53.183Z,15.77
2018-10-01T16:31:23.032Z,19.87
2018-10-01T16:33:52.715Z,25.03
2018-10-01T16:36:22.350Z,23.50
2018-10-01T16:38:52.130Z,16.53
2018-10-01T16:41:21.835Z,18.57
2018-10-01T16:43:51.504Z,16.93
2018-10-01T16:46:21.179Z,18.77
2018-10-01T16:48:50.914Z,27.03
2018-10-01T16:51:21.700Z,19.67
2018-10-01T16:53:51.413Z,16.63
2018-10-01T16:56:21.223Z,14.03
2018-10-01T16:58:50.737Z,16.27
2018-10-01T17:01:20.221Z,19.47
2018-10-01T17:03:49.902Z,15.87
2018-10-01T17:06:19.840Z,27.20
2018-10-01T17:08:49.442Z,18.50
2018-10-01T17:11:19.093Z,23.67
2018-10-01T17:13:48.911Z,30.50
2018-10-01T17:16:18.527Z,26.00
2018-10-01T17:18:48.813Z,27.57
2018-10-01T17:21:18.365Z,29.30
2018-10-01T17:23:48.069Z,21.70
2018-10-01T17:26:17.608Z,21.93
2018-10-01T17:28:47.363Z,19.00
2018-10-01T17:31:17.124Z,19.43
2018-10-01T17:33:46.858Z,26.07
2018-10-01T17:36:16.415Z,25.33
2018-10-01T17:38:46.047Z,27.73
2018-10-01T17:41:15.826Z,40.33
2018-10-01T17:43:46.343Z,44.77
2018-10-01T17:46:15.991Z,32.40
2018-10-01T17:48:45.555Z,27.63
2018-10-01T17:51:15.395Z,36.23
2018-10-01T17:53:45.068Z,32.00
2018-10-01T17:56:14.839Z,24.50
2018-10-01T17:58:44.637Z,29.67
2018-10-01T18:01:14.453Z,36.03
2018-10-01T18:03:44.212Z,27.17
2018-10-01T18:06:13.909Z,20.60
2018-10-01T18:08:43.662Z,21.00
2018-10-01T18:11:13.389Z,25.47
2018-10-01T18:13:43.241Z,34.83
2018-10-01T18:16:12.973Z,33.50
2018-10-01T18:18:42.501Z,32.53
2018-10-01T18:21:13.163Z,36.07
2018-10-01T18:23:42.615Z,21.00
2018-10-01T18:26:12.749Z,20.60
2018-10-01T18:28:42.480Z,21.90
2018-10-01T18:31:12.186Z,20.97
2018-10-01T18:33:41.820Z,62.80
2018-10-01T18:36:11.621Z,33.63
2018-10-01T18:38:41.352Z,23.47
2018-10-01T18:41:11.857Z,22.37
2018-10-01T18:43:41.504Z,26.20
2018-10-01T18:46:11.237Z,29.23
2018-10-01T18:48:40.795Z,27.77
2018-10-01T18:51:10.469Z,28.23
2018-10-01T18:53:40.304Z,23.23
2018-10-01T18:56:10.924Z,28.90
2018-10-01T18:58:40.717Z,37.83
2018-10-01T19:01:10.313Z,42.60
2018-10-01T19:03:40.170Z,25.70
2018-10-01T19:06:09.798Z,29.53
2018-10-01T19:08:39.491Z,28.13
2018-10-01T19:11:09.712Z,27.07
2018-10-01T19:13:39.214Z,25.07
2018-10-01T19:16:08.989Z,26.27
2018-10-01T19:18:38.717Z,40.43
2018-10-01T19:21:08.665Z,46.43
2018-10-01T19:23:38.379Z,36.27
2018-10-01T19:26:08.251Z,47.80
2018-10-01T19:28:37.832Z,36.07
2018-10-01T19:31:08.205Z,33.60
2018-10-01T19:33:37.970Z,33.60
2018-10-01T19:36:07.805Z,34.13
2018-10-01T19:38:37.646Z,37.47
2018-10-01T19:41:07.392Z,29.80
2018-10-01T19:43:37.365Z,33.17
2018-10-01T19:46:06.994Z,35.33
2018-10-01T19:48:36.841Z,33.80
2018-10-01T19:51:06.581Z,34.97
2018-10-01T19:53:36.681Z,31.90
2018-10-01T19:56:06.338Z,26.33
2018-10-01T19:58:36.413Z,37.80
2018-10-01T20:01:06.127Z,26.20
2018-10-01T20:03:35.708Z,27.70
2018-10-01T20:06:05.842Z,23.60
2018-10-01T20:08:35.653Z,19.73
2018-10-01T20:11:05.346Z,26.07
2018-10-01T20:13:35.100Z,32.57
2018-10-01T20:16:04.699Z,33.70
2018-10-01T20:18:34.179Z,28.83
2018-10-01T20:21:04.023Z,28.97
2018-10-01T20:23:33.897Z,24.83
2018-10-01T20:26:03.560Z,32.20
2018-10-01T20:28:33.386Z,31.90
2018-10-01T20:31:03.027Z,28.07
2018-10-01T20:33:32.722Z,29.57
2018-10-01T20:36:02.574Z,28.83
2018-10-01T20:38:32.295Z,29.20
2018-10-01T20:41:02.044Z,37.03
2018-10-01T20:43:31.673Z,26.10
2018-10-01T20:46:01.455Z,29.93
2018-10-01T20:48:30.969Z,23.87
2018-10-01T20:51:00.623Z,27.53
2018-10-01T20:53:30.880Z,25.20
2018-10-01T20:56:00.509Z,21.73
2018-10-01T20:58:30.173Z,24.97
2018-10-01T21:00:59.835Z,26.03
2018-10-01T21:03:29.468Z,27.27
2018-10-01T21:05:59.053Z,24.80
2018-10-01T21:08:28.763Z,19.47
2018-10-01T21:10:58.479Z,20.37
2018-10-01T21:13:28.194Z,21.33
2018-10-01T21:15:57.868Z,20.23
2018-10-01T21:18:27.623Z,22.77
2018-10-01T21:20:57.743Z,30.90
2018-10-01T21:23:27.221Z,25.90
2018-10-01T21:25:56.865Z,25.50
2018-10-01T21:28:26.963Z,23.53
2018-10-01T21:30:56.615Z,23.93
2018-10-01T21:33:26.985Z,28.47
2018-10-01T21:35:57.437Z,37.10
2018-10-01T21:38:27.025Z,33.00
2018-10-01T21:40:56.594Z,29.13
2018-10-01T21:43:26.234Z,29.70
2018-10-01T21:45:55.951Z,27.97
2018-10-01T21:48:25.475Z,25.40
2018-10-01T21:50:55.390Z,28.43
2018-10-01T21:53:24.923Z,35.03
2018-10-01T21:55:54.486Z,36.40
2018-10-01T21:58:24.349Z,29.43
2018-10-01T22:00:59.040Z,42.80
2018-10-01T22:03:28.630Z,24.63
2018-10-01T22:05:58.290Z,27.23
2018-10-01T22:08:28.133Z,28.13
2018-10-01T22:10:58.898Z,28.23
2018-10-01T22:13:28.616Z,21.07
2018-10-01T22:15:59.208Z,27.23
2018-10-01T22:18:29.841Z,27.50
2018-10-01T22:20:59.303Z,25.00
2018-10-01T22:23:29.137Z,24.27
2018-10-01T22:25:58.902Z,23.30
2018-10-01T22:28:28.625Z,23.90
2018-10-01T22:30:58.432Z,24.37
2018-10-01T22:33:28.686Z,23.23
2018-10-01T22:35:58.326Z,29.90
2018-10-01T22:38:28.030Z,25.20
2018-10-01T22:40:57.548Z,19.10
2018-10-01T22:43:27.307Z,25.57
2018-10-01T22:45:57.090Z,30.13
2018-10-01T22:48:26.713Z,28.77
2018-10-01T22:50:56.692Z,26.20
2018-10-01T22:53:26.364Z,20.50
2018-10-01T22:55:56.086Z,32.10
2018-10-01T22:58:25.579Z,22.03
2018-10-01T23:00:55.109Z,21.50
2018-10-01T23:03:24.622Z,32.47
2018-10-01T23:05:54.224Z,30.27
2018-10-01T23:08:23.973Z,27.33
2018-10-01T23:10:53.688Z,28.13
2018-10-01T23:13:23.207Z,32.47
2018-10-01T23:15:52.869Z,26.07
2018-10-01T23:18:22.435Z,24.90
2018-10-01T23:20:52.062Z,25.77
2018-10-01T23:23:21.693Z,33.50
2018-10-01T23:25:51.365Z,27.70
2018-10-01T23:28:21.048Z,24.83
2018-10-01T23:30:50.713Z,23.93
2018-10-01T23:33:21.000Z,25.70
2018-10-01T23:35:50.738Z,33.57
2018-10-01T23:38:20.448Z,23.20
2018-10-01T23:40:50.241Z,21.00
2018-10-01T23:43:19.973Z,22.87
2018-10-01T23:45:49.766Z,20.20
2018-10-01T23:48:20.216Z,24.93
2018-10-01T23:50:50.018Z,17.70
2018-10-01T23:53:19.557Z,18.00
2018-10-01T23:55:49.337Z,20.17
2018-10-01T23:58:18.976Z,20.60
